createdAt,value
2022-11-28T00:01:22.226Z,101371.28
2022-11-28T00:03:48.675Z,101364.84
2022-11-28T00:06:15.713Z,101344.59
2022-11-28T00:08:42.396Z,101353.38
2022-11-28T00:11:10.792Z,101336.13
2022-11-28T00:13:37.465Z,101324.34
2022-11-28T00:16:06.950Z,101329.13
2022-11-28T00:18:33.591Z,101328.41
2022-11-28T00:21:06.410Z,101313.56
2022-11-28T00:23:33.656Z,101312.16
2022-11-28T00:26:13.838Z,101312.88
2022-11-28T00:28:40.255Z,101312.16
2022-11-28T00:31:06.774Z,101309.75
2022-11-28T00:33:33.562Z,101303.31
2022-11-28T00:36:02.734Z,101304.88
2022-11-28T00:38:29.580Z,101297.41
2022-11-28T00:41:00.855Z,101286.59
2022-11-28T00:43:28.066Z,101300.78
2022-11-28T00:45:55.609Z,101294.03
2022-11-28T00:48:22.072Z,101299.06
2022-11-28T00:50:48.789Z,101289.41
2022-11-28T00:53:15.261Z,101287.72
2022-11-28T00:55:41.636Z,101286.47
2022-11-28T00:58:08.444Z,101270.44
2022-11-28T01:00:34.847Z,101272.28
2022-11-28T01:03:01.255Z,101271.44
2022-11-28T01:05:27.639Z,101271.31
2022-11-28T01:07:54.168Z,101265.13
2022-11-28T01:10:20.609Z,101265.13
2022-11-28T01:12:47.008Z,101261.72
2022-11-28T01:15:13.866Z,101264.69
2022-11-28T01:17:41.269Z,101270.75
2022-11-28T01:20:08.837Z,101263.00
2022-11-28T01:22:35.200Z,101251.34
2022-11-28T01:25:01.553Z,101247.13
2022-11-28T01:27:27.920Z,101255.00
2022-11-28T01:29:54.271Z,101254.13
2022-11-28T01:32:20.645Z,101251.59
2022-11-28T01:34:47.019Z,101244.16
2022-11-28T01:37:13.403Z,101245.59
2022-11-28T01:39:39.806Z,101242.63
2022-11-28T01:42:06.256Z,101244.59
2022-11-28T01:44:32.554Z,101239.00
2022-11-28T01:46:58.962Z,101236.44
2022-11-28T01:49:33.524Z,101232.94
2022-11-28T01:52:04.925Z,101232.94
2022-11-28T01:54:33.025Z,101223.81
2022-11-28T01:57:02.824Z,101218.63
2022-11-28T01:59:34.793Z,101206.00
2022-11-28T02:02:06.345Z,101211.59
2022-11-28T02:04:34.151Z,101201.94
2022-11-28T02:07:00.848Z,101195.59
2022-11-28T02:09:27.371Z,101194.63
2022-11-28T02:12:09.444Z,101190.97
2022-11-28T02:14:50.059Z,101189.03
2022-11-28T02:17:26.532Z,101180.72
2022-11-28T02:20:14.002Z,101192.38
2022-11-28T02:23:02.137Z,101187.50
2022-11-28T02:26:04.062Z,101185.94
2022-11-28T02:29:12.376Z,101180.59
2022-11-28T02:32:10.897Z,101184.53
2022-11-28T02:34:43.091Z,101175.56
2022-11-28T02:37:34.302Z,101174.84
2022-11-28T02:40:25.416Z,101182.59
2022-11-28T02:43:29.226Z,101194.66
2022-11-28T02:46:21.981Z,101177.81
2022-11-28T02:48:55.005Z,101187.06
2022-11-28T02:51:39.632Z,101183.72
2022-11-28T02:54:09.534Z,101170.09
2022-11-28T02:56:35.938Z,101167.16
2022-11-28T02:59:02.334Z,101178.81
2022-11-28T03:01:33.899Z,101175.16
2022-11-28T03:04:04.444Z,101174.31
2022-11-28T03:06:53.469Z,101174.59
2022-11-28T03:09:28.674Z,101171.09
2022-11-28T03:12:10.231Z,101166.72
2022-11-28T03:14:55.218Z,101164.63
2022-11-28T03:17:41.567Z,101152.81
2022-11-28T03:20:14.746Z,101151.16
2022-11-28T03:22:55.929Z,101144.41
2022-11-28T03:25:40.632Z,101141.59
2022-11-28T03:28:14.675Z,101126.41
2022-11-28T03:30:49.008Z,101131.47
2022-11-28T03:33:17.120Z,101133.88
2022-11-28T03:35:49.037Z,101132.03
2022-11-28T03:38:22.156Z,101135.56
2022-11-28T03:40:53.253Z,101136.94
2022-11-28T03:43:24.582Z,101119.25
2022-11-28T03:45:56.200Z,101129.34
2022-11-28T03:48:40.176Z,101127.25
2022-11-28T03:51:12.254Z,101128.66
2022-11-28T03:53:59.095Z,101130.31
2022-11-28T03:56:38.436Z,101126.69
2022-11-28T03:59:12.437Z,101129.34
2022-11-28T04:01:53.369Z,101136.25
2022-11-28T04:04:30.649Z,101129.75
2022-11-28T04:07:21.055Z,101124.56
2022-11-28T04:09:51.774Z,101127.53
2022-11-28T04:12:40.667Z,101123.84
2022-11-28T04:15:14.697Z,101127.94
2022-11-28T04:18:38.081Z,101129.47
2022-11-28T04:21:10.249Z,101125.66
2022-11-28T04:23:40.042Z,101115.25
2022-11-28T04:26:23.255Z,101127.22
2022-11-28T04:28:52.642Z,101132.88
2022-11-28T04:31:22.751Z,101126.09
2022-11-28T04:33:56.669Z,101137.78
2022-11-28T04:36:25.791Z,101132.72
2022-11-28T04:38:57.321Z,101140.44
2022-11-28T04:41:30.766Z,101128.91
2022-11-28T04:44:08.855Z,101137.09
2022-11-28T04:46:41.694Z,101131.75
2022-11-28T04:49:08.118Z,101131.44
2022-11-28T04:51:48.374Z,101128.09
2022-11-28T04:54:27.679Z,101133.56
2022-11-28T04:57:29.387Z,101134.69
2022-11-28T04:59:56.436Z,101132.03
2022-11-28T05:02:24.171Z,101130.31
2022-11-28T05:04:53.273Z,101136.69
2022-11-28T05:07:19.768Z,101139.91
2022-11-28T05:09:46.136Z,101137.34
2022-11-28T05:12:12.513Z,101147.78
2022-11-28T05:14:40.905Z,101142.69
2022-11-28T05:17:08.081Z,101140.75
2022-11-28T05:19:34.459Z,101136.25
2022-11-28T05:22:00.793Z,101151.97
2022-11-28T05:24:32.061Z,101149.59
2022-11-28T05:26:58.819Z,101148.44
2022-11-28T05:29:25.652Z,101154.50
2022-11-28T05:31:52.075Z,101157.31
2022-11-28T05:34:18.511Z,101160.69
2022-11-28T05:36:44.838Z,101159.97
2022-11-28T05:39:11.204Z,101166.88
2022-11-28T05:41:37.616Z,101157.59
2022-11-28T05:44:04.053Z,101159.56
2022-11-28T05:46:30.481Z,101158.72
2022-11-28T05:48:57.292Z,101156.75
2022-11-28T05:51:23.683Z,101163.50
2022-11-28T05:53:50.132Z,101161.09
2022-11-28T05:56:19.244Z,101161.81
2022-11-28T05:58:45.766Z,101166.31
2022-11-28T06:01:18.029Z,101160.84
2022-11-28T06:03:45.040Z,101159.00
2022-11-28T06:06:22.315Z,101173.03
2022-11-28T06:08:51.478Z,101172.06
2022-11-28T06:11:19.717Z,101167.44
2022-11-28T06:13:47.905Z,101161.09
2022-11-28T06:16:20.193Z,101172.47
2022-11-28T06:18:46.650Z,101165.44
2022-11-28T06:21:14.473Z,101168.81
2022-11-28T06:23:41.057Z,101174.88
2022-11-28T06:26:13.947Z,101180.88
2022-11-28T06:28:41.498Z,101178.53
2022-11-28T06:31:16.808Z,101176.13
2022-11-28T06:33:43.305Z,101180.63
2022-11-28T06:36:11.431Z,101185.97
2022-11-28T06:38:37.787Z,101190.47
2022-11-28T06:41:07.022Z,101183.69
2022-11-28T06:43:33.983Z,101182.41
2022-11-28T06:46:00.677Z,101189.34
2022-11-28T06:48:27.483Z,101190.72
2022-11-28T06:50:54.333Z,101193.94
2022-11-28T06:53:20.975Z,101192.41
2022-11-28T06:55:47.563Z,101191.28
2022-11-28T06:58:13.909Z,101196.34
2022-11-28T07:00:40.253Z,101198.44
2022-11-28T07:03:06.626Z,101196.75
2022-11-28T07:05:32.996Z,101201.78
2022-11-28T07:07:59.550Z,101196.31
2022-11-28T07:10:27.787Z,101190.44
2022-11-28T07:12:55.632Z,101214.03
2022-11-28T07:15:22.377Z,101212.22
2022-11-28T07:17:49.011Z,101208.13
2022-11-28T07:20:15.538Z,101201.22
2022-11-28T07:22:43.568Z,101214.56
2022-11-28T07:25:10.910Z,101201.38
2022-11-28T07:27:37.295Z,101217.81
2022-11-28T07:30:03.924Z,101220.63
2022-11-28T07:32:30.312Z,101224.69
2022-11-28T07:34:56.656Z,101223.03
2022-11-28T07:37:23.005Z,101228.06
2022-11-28T07:39:49.349Z,101222.03
2022-11-28T07:42:15.742Z,101220.19
2022-11-28T07:44:42.095Z,101220.06
2022-11-28T07:47:08.553Z,101215.69
2022-11-28T07:49:34.948Z,101215.41
2022-11-28T07:52:01.360Z,101220.91
2022-11-28T07:54:27.770Z,101216.25
2022-11-28T07:57:11.858Z,101224.41
2022-11-28T07:59:38.591Z,101210.91
2022-11-28T08:02:05.078Z,101224.97
2022-11-28T08:04:31.473Z,101222.47
2022-11-28T08:06:58.126Z,101224.97
2022-11-28T08:09:24.545Z,101223.31
2022-11-28T08:11:52.451Z,101224.13
2022-11-28T08:14:19.017Z,101228.34
2022-11-28T08:16:46.556Z,101227.81
2022-11-28T08:19:13.169Z,101228.66
2022-11-28T08:21:39.551Z,101235.66
2022-11-28T08:24:07.966Z,101235.66
2022-11-28T08:26:35.344Z,101230.03
2022-11-28T08:29:02.701Z,101235.53
2022-11-28T08:31:32.431Z,101238.75
2022-11-28T08:34:01.421Z,101247.47
2022-11-28T08:36:29.313Z,101252.53
2022-11-28T08:39:22.801Z,101251.56
2022-11-28T08:41:42.922Z,101236.91
2022-11-28T08:44:09.268Z,101241.84
2022-11-28T08:46:36.241Z,101251.38
2022-11-28T08:49:04.550Z,101242.53
2022-11-28T08:51:31.808Z,101251.38
2022-11-28T08:53:59.852Z,101259.81
2022-11-28T08:56:26.741Z,101253.34
2022-11-28T08:58:53.099Z,101256.31
2022-11-28T09:01:24.407Z,101264.44
2022-11-28T09:03:51.728Z,101262.34
2022-11-28T09:06:18.650Z,101262.06
2022-11-28T09:08:45.141Z,101258.41
2022-11-28T09:11:14.640Z,101256.16
2022-11-28T09:13:41.668Z,101263.47
2022-11-28T09:16:08.756Z,101265.41
2022-11-28T09:18:35.701Z,101265.16
2022-11-28T09:21:05.802Z,101267.81
2022-11-28T09:23:32.171Z,101265.56
2022-11-28T09:25:58.560Z,101260.91
2022-11-28T09:28:25.073Z,101265.16
2022-11-28T09:31:00.283Z,101267.38
2022-11-28T09:33:26.853Z,101267.94
2022-11-28T09:35:55.256Z,101264.56
2022-11-28T09:38:23.085Z,101265.56
2022-11-28T09:40:49.792Z,101271.16
2022-11-28T09:43:23.450Z,101274.28
2022-11-28T09:45:52.519Z,101277.34
2022-11-28T09:48:35.335Z,101283.28
2022-11-28T09:51:09.669Z,101286.22
2022-11-28T09:53:46.012Z,101282.00
2022-11-28T09:56:15.957Z,101285.06
2022-11-28T09:58:56.034Z,101288.06
2022-11-28T10:01:56.624Z,101284.41
2022-11-28T10:04:42.609Z,101283.41
2022-11-28T10:07:36.810Z,101287.75
2022-11-28T10:10:34.423Z,101291.44
2022-11-28T10:13:16.707Z,101291.44
2022-11-28T10:15:56.779Z,101283.56
2022-11-28T10:18:36.033Z,101287.06
2022-11-28T10:21:18.073Z,101281.41
2022-11-28T10:23:46.836Z,101285.25
2022-11-28T10:26:28.780Z,101285.91
2022-11-28T10:28:57.649Z,101281.41
2022-11-28T10:31:44.569Z,101281.13
2022-11-28T10:34:24.904Z,101286.34
2022-11-28T10:37:00.806Z,101286.88
2022-11-28T10:39:27.670Z,101282.25
2022-11-28T10:42:14.244Z,101283.81
2022-11-28T11:03:38.064Z,101290.28
2022-11-28T11:06:04.632Z,101290.72
2022-11-28T11:08:36.732Z,101291.00
2022-11-28T11:11:23.779Z,101290.72
2022-11-28T11:14:32.034Z,101287.34
2022-11-28T11:17:01.460Z,101289.34
2022-11-28T11:19:39.391Z,101291.00
2022-11-28T11:22:25.978Z,101290.31
2022-11-28T11:25:32.536Z,101288.78
2022-11-28T11:28:01.670Z,101285.97
2022-11-28T11:30:28.178Z,101288.50
2022-11-28T11:32:57.079Z,101284.56
2022-11-28T11:35:27.784Z,101285.97
2022-11-28T11:38:14.821Z,101280.31
2022-11-28T11:40:41.211Z,101271.34
2022-11-28T11:43:21.702Z,101288.19
2022-11-28T11:46:03.327Z,101256.72
2022-11-28T11:48:44.372Z,101284.41
2022-11-28T11:51:25.287Z,101291.00
2022-11-28T11:54:12.974Z,101286.81
2022-11-28T11:56:43.770Z,101294.69
2022-11-28T11:59:33.337Z,101289.75
2022-11-28T12:02:14.924Z,101293.09
2022-11-28T12:04:51.091Z,101285.97
2022-11-28T12:07:32.303Z,101290.03
2022-11-28T12:10:04.132Z,101299.75
2022-11-28T12:12:36.339Z,101301.44
2022-11-28T12:15:02.783Z,101301.28
2022-11-28T12:17:59.088Z,101297.06
2022-11-28T12:20:44.333Z,101304.09
2022-11-28T12:23:29.000Z,101311.16
2022-11-28T12:26:07.697Z,101307.31
2022-11-28T12:29:11.930Z,101304.81
2022-11-28T12:31:55.158Z,101302.13
2022-11-28T12:34:53.439Z,101305.78
2022-11-28T12:37:37.231Z,101301.13
2022-11-28T12:40:24.530Z,101306.66
2022-11-28T12:43:19.989Z,101315.91
2022-11-28T12:46:04.006Z,101308.72
2022-11-28T12:49:03.788Z,101314.50
2022-11-28T12:51:48.928Z,101313.91
2022-11-28T12:55:01.957Z,101316.31
2022-11-28T12:57:40.006Z,101312.78
2022-11-28T13:00:23.819Z,101308.03
2022-11-28T13:03:23.497Z,101303.06
2022-11-28T13:06:16.430Z,101309.59
2022-11-28T13:08:55.437Z,101314.22
2022-11-28T13:11:37.117Z,101322.25
2022-11-28T13:14:20.797Z,101324.47
2022-11-28T13:16:52.871Z,101319.13
2022-11-28T13:19:30.353Z,101324.63
2022-11-28T13:22:25.165Z,101325.47
2022-11-28T13:25:09.946Z,101321.38
2022-11-28T13:28:11.662Z,101334.34
2022-11-28T13:30:49.403Z,101326.47
2022-11-28T13:33:27.611Z,101333.34
2022-11-28T13:35:54.874Z,101328.72
2022-11-28T13:38:54.279Z,101334.91
2022-11-28T13:42:13.899Z,101334.06
2022-11-28T13:45:00.489Z,101337.72
2022-11-28T13:47:34.837Z,101340.53
2022-11-28T13:50:23.014Z,101344.19
2022-11-28T13:53:08.150Z,101342.38
2022-11-28T13:55:46.319Z,101341.25
2022-11-28T13:58:24.033Z,101334.63
2022-11-28T14:01:05.559Z,101344.63
2022-11-28T14:03:44.264Z,101342.22
2022-11-28T14:06:12.642Z,101342.75
2022-11-28T14:08:41.565Z,101342.94
2022-11-28T14:11:43.345Z,101347.13
2022-11-28T14:14:15.641Z,101350.78
2022-11-28T14:16:57.722Z,101346.47
2022-11-28T14:20:02.840Z,101351.09
2022-11-28T14:22:43.435Z,101359.25
2022-11-28T14:25:18.364Z,101361.09
2022-11-28T14:28:07.697Z,101361.66
2022-11-28T14:30:39.830Z,101367.41
2022-11-28T14:33:17.131Z,101364.06
2022-11-28T14:35:52.552Z,101369.84
2022-11-28T14:38:31.256Z,101375.22
2022-11-28T14:41:12.769Z,101379.41
2022-11-28T14:43:42.632Z,101380.69
2022-11-28T14:46:23.215Z,101380.84
2022-11-28T14:48:58.696Z,101387.75
2022-11-28T14:52:00.016Z,101389.97
2022-11-28T14:54:41.558Z,101389.97
2022-11-28T14:57:21.978Z,101396.75
2022-11-28T14:59:50.073Z,101390.97
2022-11-28T15:02:32.377Z,101400.84
2022-11-28T15:05:36.013Z,101397.31
2022-11-28T15:08:21.217Z,101407.16
2022-11-28T15:11:21.704Z,101406.19
2022-11-28T15:14:10.081Z,101406.19
2022-11-28T15:16:43.941Z,101407.44
2022-11-28T15:19:22.738Z,101406.75
2022-11-28T15:21:52.477Z,101410.38
2022-11-28T15:24:30.354Z,101403.09
2022-11-28T15:27:15.550Z,101404.22
2022-11-28T15:29:41.938Z,101406.59
2022-11-28T15:32:14.647Z,101384.50
2022-11-28T15:34:41.235Z,101411.53
2022-11-28T15:37:18.378Z,101410.00
2022-11-28T15:39:49.733Z,101411.53
2022-11-28T15:42:30.698Z,101413.50
2022-11-28T15:45:06.202Z,101417.16
2022-11-28T15:47:32.681Z,101416.88
2022-11-28T15:50:19.971Z,101419.13
2022-11-28T15:53:01.555Z,101416.03
2022-11-28T15:55:31.178Z,101425.47
2022-11-28T15:58:13.044Z,101419.13
2022-11-28T16:00:43.312Z,101412.38
2022-11-28T16:03:18.052Z,101421.66
2022-11-28T16:05:47.454Z,101428.72
2022-11-28T16:08:41.182Z,101433.34
2022-11-28T16:11:10.248Z,101432.63
2022-11-28T16:13:39.234Z,101436.88
2022-11-28T16:16:12.914Z,101441.91
2022-11-28T16:18:44.685Z,101443.06
2022-11-28T16:21:13.750Z,101445.88
2022-11-28T16:23:41.235Z,101440.81
2022-11-28T16:26:32.804Z,101438.81
2022-11-28T16:29:14.542Z,101441.25
2022-11-28T16:31:43.951Z,101441.50
2022-11-28T16:34:13.744Z,101440.25
2022-11-28T16:36:42.548Z,101445.44
2022-11-28T16:39:11.965Z,101449.81
2022-11-28T16:42:06.230Z,101452.19
2022-11-28T16:44:33.560Z,101465.00
2022-11-28T16:47:00.764Z,101467.69
2022-11-28T16:49:30.164Z,101468.13
2022-11-28T16:52:21.681Z,101470.06
2022-11-28T16:54:49.293Z,101473.72
2022-11-28T16:57:16.060Z,101470.50
2022-11-28T16:59:44.052Z,101476.81
2022-11-28T17:02:19.450Z,101471.22
2022-11-28T17:04:47.531Z,101479.22
2022-11-28T17:07:16.745Z,101481.63
2022-11-28T17:09:44.471Z,101491.34
2022-11-28T17:12:33.865Z,101485.84
2022-11-28T17:15:00.334Z,101481.63
2022-11-28T17:17:27.794Z,101485.97
2022-11-28T17:19:54.156Z,101486.69
2022-11-28T17:22:26.156Z,101494.72
2022-11-28T17:24:58.272Z,101494.97
2022-11-28T17:27:24.616Z,101500.06
2022-11-28T17:29:50.950Z,101496.25
2022-11-28T17:32:17.550Z,101501.06
2022-11-28T17:34:45.985Z,101489.63
2022-11-28T17:37:12.584Z,101491.34
2022-11-28T17:39:39.011Z,101503.00
2022-11-28T17:42:05.916Z,101488.94
2022-11-28T17:44:35.054Z,101506.53
2022-11-28T17:47:02.287Z,101505.69
2022-11-28T17:49:30.606Z,101504.69
2022-11-28T17:51:57.524Z,101503.97
2022-11-28T17:54:25.918Z,101506.66
2022-11-28T17:56:53.314Z,101511.31
2022-11-28T17:59:22.544Z,101520.63
2022-11-28T18:01:49.535Z,101496.53
2022-11-28T18:04:17.422Z,101496.69
2022-11-28T18:06:45.910Z,101510.59
2022-11-28T18:09:13.325Z,101515.41
2022-11-28T18:11:43.384Z,101509.78
2022-11-28T18:14:10.182Z,101486.13
2022-11-28T18:16:36.916Z,101511.63
2022-11-28T18:19:04.277Z,101510.59
2022-11-28T18:21:31.409Z,101510.59
2022-11-28T18:23:57.919Z,101508.94
2022-11-28T18:26:26.029Z,101514.28
2022-11-28T18:28:53.143Z,101518.19
2022-11-28T18:31:23.042Z,101514.56
2022-11-28T18:33:49.672Z,101518.78
2022-11-28T18:36:22.153Z,101522.44
2022-11-28T18:38:49.481Z,101524.41
2022-11-28T18:41:17.528Z,101527.50
2022-11-28T18:43:44.338Z,101526.53
2022-11-28T18:46:13.377Z,101531.31
2022-11-28T18:48:41.660Z,101529.50
2022-11-28T18:51:15.492Z,101529.50
2022-11-28T18:53:42.274Z,101536.66
2022-11-28T18:56:09.345Z,101536.53
2022-11-28T18:58:39.034Z,101537.34
2022-11-28T19:01:13.971Z,101536.66
2022-11-28T19:03:41.229Z,101537.78
2022-11-28T19:06:10.326Z,101546.94
2022-11-28T19:08:38.597Z,101548.34
2022-11-28T19:11:09.474Z,101556.66
2022-11-28T19:13:39.567Z,101549.47
2022-11-28T19:16:18.883Z,101555.09
2022-11-28T19:18:45.819Z,101553.25
2022-11-28T19:21:15.711Z,101558.75
2022-11-28T19:23:42.108Z,101554.97
2022-11-28T19:26:11.601Z,101552.03
2022-11-28T19:28:40.129Z,101564.69
2022-11-28T19:31:17.153Z,101558.22
2022-11-28T19:33:44.333Z,101559.03
2022-11-28T19:36:12.942Z,101561.28
2022-11-28T19:38:40.248Z,101569.19
2022-11-28T19:41:11.392Z,101573.84
2022-11-28T19:43:38.165Z,101570.03
2022-11-28T19:46:05.015Z,101570.88
2022-11-28T19:48:33.824Z,101574.28
2022-11-28T19:51:00.973Z,101577.22
2022-11-28T19:53:28.897Z,101570.75
2022-11-28T19:55:55.983Z,101581.31
2022-11-28T19:58:23.155Z,101585.94
2022-11-28T20:00:49.647Z,101594.81
2022-11-28T20:03:16.042Z,101587.66
2022-11-28T20:05:42.401Z,101574.28
2022-11-28T20:08:08.831Z,101584.97
2022-11-28T20:10:36.761Z,101584.69
2022-11-28T20:13:03.380Z,101596.81
2022-11-28T20:15:29.748Z,101604.41
2022-11-28T20:17:56.079Z,101607.78
2022-11-28T20:20:22.453Z,101602.59
2022-11-28T20:22:48.848Z,101606.09
2022-11-28T20:25:19.273Z,101614.81
2022-11-28T20:27:47.286Z,101606.25
2022-11-28T20:30:14.363Z,101613.13
2022-11-28T20:32:40.709Z,101616.53
2022-11-28T20:35:09.373Z,101622.72
2022-11-28T20:37:37.494Z,101606.09
2022-11-28T20:40:04.192Z,101619.91
2022-11-28T20:42:31.260Z,101623.28
2022-11-28T20:44:59.717Z,101629.34
2022-11-28T20:47:26.075Z,101626.66
2022-11-28T20:49:52.444Z,101621.31
2022-11-28T20:52:18.818Z,101623.28
2022-11-28T20:54:45.168Z,101617.94
2022-11-28T20:57:21.259Z,101613.00
2022-11-28T20:59:47.965Z,101618.34
2022-11-28T21:02:14.402Z,101626.66
2022-11-28T21:04:40.779Z,101621.31
2022-11-28T21:07:07.149Z,101627.53
2022-11-28T21:09:33.510Z,101622.16
2022-11-28T21:11:59.864Z,101630.91
2022-11-28T21:14:29.923Z,101636.41
2022-11-28T21:16:57.626Z,101634.28
2022-11-28T21:19:24.374Z,101617.38
2022-11-28T21:21:50.838Z,101623.81
2022-11-28T21:24:17.207Z,101634.16
2022-11-28T21:26:48.126Z,101627.09
2022-11-28T21:29:19.737Z,101636.81
2022-11-28T21:31:46.641Z,101636.53
2022-11-28T21:34:14.651Z,101625.56
2022-11-28T21:36:41.889Z,101630.63
2022-11-28T21:39:16.011Z,101636.53
2022-11-28T21:41:42.557Z,101641.06
2022-11-28T21:44:08.931Z,101639.94
2022-11-28T21:46:35.353Z,101643.31
2022-11-28T21:49:01.847Z,101637.97
2022-11-28T21:51:28.667Z,101648.53
2022-11-28T21:53:57.228Z,101645.44
2022-11-28T21:56:24.145Z,101648.38
2022-11-28T21:58:50.468Z,101648.38
2022-11-28T22:01:17.015Z,101653.03
2022-11-28T22:03:43.935Z,101643.44
2022-11-28T22:06:22.184Z,101637.13
2022-11-28T22:08:49.076Z,101653.34
2022-11-28T22:11:16.758Z,101646.00
2022-11-28T22:13:45.726Z,101646.56
2022-11-28T22:16:16.851Z,101646.41
2022-11-28T22:18:43.833Z,101643.44
2022-11-28T22:21:43.317Z,101655.16
2022-11-28T22:23:57.453Z,101652.50
2022-11-28T22:26:23.899Z,101650.25
2022-11-28T22:28:53.827Z,101652.06
2022-11-28T22:31:20.993Z,101653.50
2022-11-28T22:33:49.537Z,101661.53
2022-11-28T22:36:18.306Z,101655.16
2022-11-28T22:38:46.223Z,101662.50
2022-11-28T22:41:24.659Z,101661.53
2022-11-28T22:43:55.627Z,101659.13
2022-11-28T22:46:22.415Z,101648.13
2022-11-28T22:48:48.881Z,101651.94
2022-11-28T22:51:18.589Z,101649.97
2022-11-28T22:53:45.034Z,101656.28
2022-11-28T22:56:14.844Z,101656.44
2022-11-28T22:58:43.734Z,101661.06
2022-11-28T23:01:17.127Z,101663.63
2022-11-28T23:03:44.200Z,101664.31
2022-11-28T23:06:13.547Z,101657.03
2022-11-28T23:08:40.132Z,101667.47
2022-11-28T23:11:14.603Z,101661.78
2022-11-28T23:13:41.937Z,101655.44
2022-11-28T23:16:13.363Z,101670.22
2022-11-28T23:18:40.419Z,101671.13
2022-11-28T23:21:07.318Z,101671.00
2022-11-28T23:23:35.776Z,101674.06
2022-11-28T23:26:13.925Z,101669.59
2022-11-28T23:28:41.055Z,101679.16
2022-11-28T23:31:21.702Z,101665.09
2022-11-28T23:33:48.646Z,101663.94
2022-11-28T23:36:21.278Z,101651.69
2022-11-28T23:38:50.293Z,101674.38
2022-11-28T23:41:16.777Z,101673.69
2022-11-28T23:43:43.541Z,101674.78
2022-11-28T23:46:10.906Z,101670.69
2022-11-28T23:48:39.260Z,101682.50
2022-11-28T23:51:06.538Z,101679.44
2022-11-28T23:53:36.580Z,101664.00
2022-11-28T23:56:11.304Z,101660.63
2022-11-28T23:58:38.048Z,101677.56
